createdAt,value
2018-05-02T00:01:01.473Z,6.10
2018-05-02T00:03:30.385Z,5.07
2018-05-02T00:05:59.356Z,5.07
2018-05-02T00:08:28.264Z,4.13
2018-05-02T00:10:57.158Z,3.73
2018-05-02T00:13:26.066Z,5.37
2018-05-02T00:15:54.990Z,8.93
2018-05-02T00:18:24.037Z,5.20
2018-05-02T00:20:53.008Z,5.30
2018-05-02T00:23:21.928Z,2.57
2018-05-02T00:25:50.884Z,8.77
2018-05-02T00:28:20.595Z,5.10
2018-05-02T00:30:49.485Z,5.77
2018-05-02T00:33:18.350Z,5.53
2018-05-02T00:35:47.271Z,3.50
2018-05-02T00:38:16.290Z,6.13
2018-05-02T00:40:45.254Z,4.77
2018-05-02T00:43:14.123Z,5.30
2018-05-02T00:45:43.057Z,6.23
2018-05-02T00:48:11.919Z,9.93
2018-05-02T00:50:40.823Z,21.33
2018-05-02T00:53:09.719Z,32.37
2018-05-02T00:55:38.660Z,29.47
2018-05-02T00:58:07.590Z,32.40
2018-05-02T01:00:42.327Z,39.00
2018-05-02T01:03:11.246Z,36.20
2018-05-02T01:05:40.221Z,29.33
2018-05-02T01:08:09.147Z,25.57
2018-05-02T01:10:38.075Z,13.53
2018-05-02T01:13:07.025Z,9.63
2018-05-02T01:15:35.943Z,5.73
2018-05-02T01:18:04.872Z,5.57
2018-05-02T01:20:33.880Z,3.53
2018-05-02T01:23:02.811Z,7.57
2018-05-02T01:25:31.698Z,5.80
2018-05-02T01:28:00.592Z,4.37
2018-05-02T01:30:29.504Z,6.17
2018-05-02T01:32:58.403Z,7.43
2018-05-02T01:35:27.298Z,8.37
2018-05-02T01:37:56.198Z,6.60
2018-05-02T01:40:25.114Z,4.57
2018-05-02T01:42:54.027Z,6.70
2018-05-02T01:45:22.925Z,5.60
2018-05-02T01:47:52.574Z,5.87
2018-05-02T01:50:21.483Z,4.97
2018-05-02T01:52:50.452Z,5.57
2018-05-02T01:55:19.425Z,8.03
2018-05-02T01:57:48.349Z,5.37
2018-05-02T02:00:17.307Z,7.63
2018-05-02T02:02:46.955Z,9.20
2018-05-02T02:05:15.831Z,10.57
2018-05-02T02:07:44.756Z,6.47
2018-05-02T02:10:13.691Z,7.40
2018-05-02T02:12:43.340Z,4.40
2018-05-02T02:15:12.246Z,5.83
2018-05-02T02:17:41.188Z,3.87
2018-05-02T02:20:10.082Z,8.07
2018-05-02T02:22:39.063Z,6.97
2018-05-02T02:25:08.718Z,6.50
2018-05-02T02:27:37.665Z,7.40
2018-05-02T02:30:06.614Z,7.37
2018-05-02T02:32:35.584Z,6.73
2018-05-02T02:35:04.568Z,10.17
2018-05-02T02:37:33.532Z,6.73
2018-05-02T02:40:02.409Z,5.63
2018-05-02T02:42:31.286Z,6.73
2018-05-02T02:45:00.939Z,7.63
2018-05-02T02:47:29.826Z,8.43
2018-05-02T02:49:58.718Z,6.33
2018-05-02T02:52:27.659Z,5.97
2018-05-02T02:54:56.592Z,6.33
2018-05-02T02:57:25.516Z,5.07
2018-05-02T02:59:54.416Z,5.70
2018-05-02T03:02:23.330Z,7.57
2018-05-02T03:04:52.224Z,6.93
2018-05-02T03:07:21.866Z,10.37
2018-05-02T03:09:50.793Z,7.37
2018-05-02T03:12:19.685Z,13.23
2018-05-02T03:14:48.660Z,10.93
2018-05-02T03:17:17.602Z,7.17
2018-05-02T03:19:49.709Z,8.60
2018-05-02T03:22:18.679Z,8.23
2018-05-02T03:24:47.625Z,10.87
2018-05-02T03:27:16.571Z,8.87
2018-05-02T03:29:45.499Z,8.23
2018-05-02T03:32:14.470Z,7.30
2018-05-02T03:34:44.159Z,11.87
2018-05-02T03:37:13.059Z,9.00
2018-05-02T03:39:41.980Z,6.20
2018-05-02T03:42:10.882Z,7.07
2018-05-02T03:44:42.168Z,7.70
2018-05-02T03:47:11.815Z,7.10
2018-05-02T03:49:41.598Z,9.93
2018-05-02T03:52:10.838Z,6.33
2018-05-02T03:54:39.760Z,6.63
2018-05-02T03:57:09.431Z,7.17
2018-05-02T03:59:56.223Z,5.10
2018-05-02T04:02:46.805Z,9.07
2018-05-02T04:05:38.407Z,4.07
2018-05-02T04:08:09.619Z,8.47
2018-05-02T04:10:38.511Z,9.77
2018-05-02T04:13:10.537Z,8.13
2018-05-02T04:15:39.423Z,9.03
2018-05-02T04:18:09.776Z,9.97
2018-05-02T04:20:39.842Z,7.87
2018-05-02T04:23:08.847Z,6.10
2018-05-02T04:25:37.830Z,5.77
2018-05-02T04:28:06.734Z,7.53
2018-05-02T04:30:35.607Z,9.53
2018-05-02T04:33:05.327Z,4.97
2018-05-02T04:35:34.196Z,6.53
2018-05-02T04:38:03.107Z,7.07
2018-05-02T04:40:32.006Z,7.70
2018-05-02T04:43:00.860Z,20.33
2018-05-02T04:45:30.529Z,8.37
2018-05-02T04:47:59.434Z,7.43
2018-05-02T04:50:28.395Z,7.57
2018-05-02T04:52:57.327Z,8.63
2018-05-02T04:55:26.307Z,7.67
2018-05-02T04:57:55.133Z,9.10
2018-05-02T05:00:24.869Z,8.20
2018-05-02T05:02:54.015Z,7.90
2018-05-02T05:05:23.756Z,9.67
2018-05-02T05:07:52.666Z,5.33
2018-05-02T05:10:21.606Z,7.73
2018-05-02T05:12:50.510Z,8.90
2018-05-02T05:15:20.195Z,7.10
2018-05-02T05:17:49.129Z,9.37
2018-05-02T05:20:18.780Z,9.07
2018-05-02T05:22:47.756Z,7.80
2018-05-02T05:25:16.627Z,7.70
2018-05-02T05:27:45.611Z,11.20
2018-05-02T05:30:14.530Z,13.43
2018-05-02T05:32:43.403Z,12.30
2018-05-02T05:35:12.330Z,9.43
2018-05-02T05:37:41.212Z,7.73
2018-05-02T05:40:10.133Z,8.40
2018-05-02T05:42:39.035Z,8.67
2018-05-02T05:45:08.680Z,8.57
2018-05-02T05:47:37.791Z,7.90
2018-05-02T05:50:07.476Z,6.30
2018-05-02T05:52:36.384Z,7.67
2018-05-02T05:55:05.378Z,8.63
2018-05-02T05:57:34.320Z,10.83
2018-05-02T06:00:04.085Z,9.97
2018-05-02T06:02:33.014Z,6.97
2018-05-02T06:05:01.921Z,10.83
2018-05-02T06:07:30.808Z,7.97
2018-05-02T06:10:00.462Z,10.07
2018-05-02T06:12:56.870Z,11.60
2018-05-02T06:15:25.847Z,9.97
2018-05-02T06:17:54.674Z,7.73
2018-05-02T06:20:23.575Z,12.10
2018-05-02T06:22:52.556Z,6.97
2018-05-02T06:25:21.515Z,9.67
2018-05-02T06:27:50.605Z,8.20
2018-05-02T06:30:20.204Z,9.97
2018-05-02T06:32:49.101Z,10.03
2018-05-02T06:35:18.100Z,9.60
2018-05-02T06:37:47.101Z,9.33
2018-05-02T06:40:15.853Z,9.67
2018-05-02T06:42:44.768Z,10.50
2018-05-02T06:45:14.470Z,12.40
2018-05-02T06:47:43.432Z,9.00
2018-05-02T06:50:12.432Z,9.60
2018-05-02T06:52:41.370Z,6.80
2018-05-02T06:55:10.294Z,9.37
2018-05-02T06:57:39.258Z,10.57
2018-05-02T07:00:08.255Z,13.30
2018-05-02T07:02:38.144Z,9.87
2018-05-02T07:05:07.029Z,12.53
2018-05-02T07:07:36.669Z,8.23
2018-05-02T07:10:05.589Z,8.73
2018-05-02T07:12:34.570Z,6.57
2018-05-02T07:15:04.213Z,8.07
2018-05-02T07:17:33.080Z,9.97
2018-05-02T07:20:02.040Z,11.03
2018-05-02T07:22:30.947Z,7.50
2018-05-02T07:24:59.876Z,11.77
2018-05-02T07:27:29.638Z,6.77
2018-05-02T07:29:58.578Z,11.87
2018-05-02T07:32:27.608Z,9.00
2018-05-02T07:34:56.477Z,7.83
2018-05-02T07:37:25.380Z,10.93
2018-05-02T07:39:54.301Z,8.53
2018-05-02T07:42:23.183Z,12.63
2018-05-02T07:44:52.052Z,6.17
2018-05-02T07:47:20.995Z,11.07
2018-05-02T07:49:49.934Z,13.83
2018-05-02T07:52:18.839Z,10.07
2018-05-02T07:54:47.714Z,10.60
2018-05-02T07:57:16.580Z,10.10
2018-05-02T07:59:45.440Z,6.57
2018-05-02T08:02:14.315Z,9.53
2018-05-02T08:04:43.205Z,8.50
2018-05-02T08:07:12.877Z,7.40
2018-05-02T08:09:42.512Z,11.77
2018-05-02T08:12:11.389Z,5.60
2018-05-02T08:14:40.304Z,13.20
2018-05-02T08:17:09.262Z,7.30
2018-05-02T08:19:38.953Z,9.97
2018-05-02T08:22:07.879Z,8.10
2018-05-02T08:24:36.732Z,9.27
2018-05-02T08:27:06.403Z,8.07
2018-05-02T08:29:35.343Z,8.97
2018-05-02T08:32:04.304Z,9.40
2018-05-02T08:34:33.206Z,4.47
2018-05-02T08:37:02.871Z,7.27
2018-05-02T08:39:31.756Z,6.77
2018-05-02T08:42:00.666Z,8.07
2018-05-02T08:44:29.645Z,14.13
2018-05-02T08:46:58.545Z,7.80
2018-05-02T08:49:27.538Z,6.83
2018-05-02T08:51:56.483Z,7.23
2018-05-02T08:54:25.397Z,7.30
2018-05-02T08:56:54.280Z,4.17
2018-05-02T08:59:23.185Z,9.87
2018-05-02T09:01:52.111Z,5.70
2018-05-02T09:04:20.977Z,13.10
2018-05-02T09:06:49.862Z,5.83
2018-05-02T09:09:18.781Z,6.20
2018-05-02T09:11:47.712Z,5.50
2018-05-02T09:14:16.564Z,7.37
2018-05-02T09:16:45.530Z,6.47
2018-05-02T09:19:16.831Z,6.57
2018-05-02T09:21:48.011Z,6.70
2018-05-02T09:24:16.880Z,10.67
2018-05-02T09:26:45.790Z,8.97
2018-05-02T09:29:14.660Z,6.23
2018-05-02T09:31:43.632Z,7.13
2018-05-02T09:34:13.597Z,8.93
2018-05-02T09:36:42.496Z,7.67
2018-05-02T09:39:11.400Z,8.80
2018-05-02T09:41:40.327Z,6.30
2018-05-02T09:44:09.325Z,4.83
2018-05-02T09:46:38.176Z,8.20
2018-05-02T09:49:07.103Z,10.17
2018-05-02T09:51:35.983Z,7.97
2018-05-02T09:54:04.914Z,5.47
2018-05-02T09:56:33.961Z,10.63
2018-05-02T09:59:03.600Z,8.43
2018-05-02T10:01:32.492Z,5.83
2018-05-02T10:04:01.366Z,9.20
2018-05-02T10:06:32.902Z,9.00
2018-05-02T10:09:01.769Z,7.50
2018-05-02T10:11:30.682Z,6.40
2018-05-02T10:14:00.408Z,6.93
2018-05-02T10:16:29.323Z,7.07
2018-05-02T10:18:58.226Z,6.83
2018-05-02T10:21:27.137Z,7.37
2018-05-02T10:23:56.066Z,5.87
2018-05-02T10:26:25.006Z,7.97
2018-05-02T10:28:53.880Z,6.67
2018-05-02T10:31:22.829Z,8.20
2018-05-02T10:33:52.493Z,9.23
2018-05-02T10:36:21.494Z,11.00
2018-05-02T10:38:50.421Z,8.20
2018-05-02T10:41:20.105Z,7.00
2018-05-02T10:43:48.996Z,8.93
2018-05-02T10:46:17.925Z,8.30
2018-05-02T10:48:46.860Z,4.40
2018-05-02T10:51:15.786Z,8.93
2018-05-02T10:53:45.457Z,6.27
2018-05-02T10:56:14.392Z,4.97
2018-05-02T10:58:44.037Z,6.47
2018-05-02T11:01:12.958Z,8.83
2018-05-02T11:03:41.866Z,7.53
2018-05-02T11:06:10.804Z,7.17
2018-05-02T11:08:39.729Z,10.63
2018-05-02T11:11:08.620Z,8.17
2018-05-02T11:13:37.598Z,11.53
2018-05-02T11:16:06.481Z,10.97
2018-05-02T11:18:35.361Z,11.87
2018-05-02T11:21:04.261Z,7.73
2018-05-02T11:23:33.139Z,8.93
2018-05-02T11:26:02.056Z,8.93
2018-05-02T11:28:30.923Z,10.77
2018-05-02T11:30:59.812Z,11.97
2018-05-02T11:33:28.699Z,7.07
2018-05-02T11:35:57.646Z,10.57
2018-05-02T11:38:26.580Z,10.13
2018-05-02T11:40:55.473Z,6.20
2018-05-02T11:43:24.393Z,11.10
2018-05-02T11:45:54.062Z,8.27
2018-05-02T11:48:22.993Z,15.00
2018-05-02T11:50:51.918Z,9.33
2018-05-02T11:53:21.540Z,10.43
2018-05-02T11:55:50.438Z,8.43
2018-05-02T11:58:19.381Z,11.97
2018-05-02T12:00:48.287Z,8.57
2018-05-02T12:03:17.176Z,10.07
2018-05-02T12:05:46.052Z,11.77
2018-05-02T12:08:14.969Z,11.67
2018-05-02T12:10:44.648Z,10.33
2018-05-02T12:13:13.576Z,11.93
2018-05-02T12:15:43.257Z,9.60
2018-05-02T12:18:12.218Z,11.10
2018-05-02T12:20:41.852Z,9.63
2018-05-02T12:23:10.776Z,8.40
2018-05-02T12:25:40.425Z,8.47
2018-05-02T12:28:09.309Z,14.27
2018-05-02T12:30:38.226Z,11.43
2018-05-02T12:33:07.118Z,8.80
2018-05-02T12:35:36.007Z,9.90
2018-05-02T12:38:04.956Z,12.23
2018-05-02T12:40:33.966Z,14.53
2018-05-02T12:43:02.833Z,19.03
2018-05-02T12:45:31.758Z,10.67
2018-05-02T12:48:00.629Z,15.63
2018-05-02T12:50:29.551Z,12.13
2018-05-02T12:52:58.473Z,10.33
2018-05-02T12:55:28.146Z,10.87
2018-05-02T12:57:57.016Z,10.90
2018-05-02T13:00:25.884Z,11.30
2018-05-02T13:02:54.766Z,12.90
2018-05-02T13:05:23.670Z,11.20
2018-05-02T13:07:52.520Z,14.23
2018-05-02T13:10:21.405Z,14.20
2018-05-02T13:12:50.327Z,14.17
2018-05-02T13:15:19.208Z,17.17
2018-05-02T13:17:48.884Z,13.07
2018-05-02T13:20:17.756Z,17.93
2018-05-02T13:22:47.429Z,14.67
2018-05-02T13:25:16.417Z,14.67
2018-05-02T13:27:45.299Z,10.57
2018-05-02T13:30:15.003Z,12.63
2018-05-02T13:32:44.918Z,9.47
2018-05-02T13:35:15.436Z,14.73
2018-05-02T13:37:44.314Z,15.53
2018-05-02T13:43:18.898Z,12.30
2018-05-02T13:59:56.482Z,15.73
2018-05-02T14:02:26.156Z,19.97
2018-05-02T14:04:55.056Z,13.17
2018-05-02T14:07:24.139Z,13.57
2018-05-02T14:10:00.056Z,12.47
2018-05-02T14:12:30.021Z,15.53
2018-05-02T14:14:59.042Z,13.50
2018-05-02T14:17:27.956Z,13.37
2018-05-02T14:20:00.160Z,9.87
2018-05-02T14:25:20.855Z,16.07
2018-05-02T14:27:49.775Z,15.77
2018-05-02T14:30:18.858Z,10.30
2018-05-02T14:32:47.867Z,10.63
2018-05-02T14:35:16.744Z,17.37
2018-05-02T14:37:45.713Z,18.27
2018-05-02T14:40:16.214Z,14.73
2018-05-02T14:42:46.944Z,16.90
2018-05-02T14:45:17.831Z,15.33
2018-05-02T14:47:49.943Z,11.43
2018-05-02T14:50:19.119Z,15.60
2018-05-02T14:52:48.025Z,18.70
2018-05-02T14:55:19.799Z,17.13
2018-05-02T14:58:00.124Z,10.40
2018-05-02T15:00:30.153Z,12.87
2018-05-02T15:03:06.397Z,13.93
2018-05-02T15:05:38.297Z,11.70
2018-05-02T15:08:07.215Z,13.70
2018-05-02T15:10:36.113Z,10.60
2018-05-02T15:13:07.454Z,13.90
2018-05-02T15:15:36.442Z,15.13
2018-05-02T15:18:07.038Z,15.60
2018-05-02T15:20:35.958Z,16.33
2018-05-02T15:23:04.921Z,17.03
2018-05-02T15:25:35.807Z,16.93
2018-05-02T15:28:04.795Z,15.97
2018-05-02T15:30:34.508Z,9.33
2018-05-02T15:33:05.273Z,15.07
2018-05-02T15:35:34.930Z,12.77
2018-05-02T15:38:04.221Z,10.03
2018-05-02T15:40:33.096Z,10.63
2018-05-02T15:43:02.101Z,11.37
2018-05-02T15:45:31.499Z,13.63
2018-05-02T15:48:00.439Z,18.10
2018-05-02T15:50:29.380Z,17.70
2018-05-02T15:52:59.159Z,15.20
2018-05-02T15:55:29.408Z,12.67
2018-05-02T15:57:59.954Z,12.97
2018-05-02T16:00:37.817Z,15.30
2018-05-02T16:03:10.411Z,10.63
2018-05-02T16:05:39.967Z,15.97
2018-05-02T16:08:08.971Z,16.37
2018-05-02T16:10:37.855Z,12.77
2018-05-02T16:13:06.778Z,11.57
2018-05-02T16:15:35.913Z,15.10
2018-05-02T16:18:05.902Z,12.23
2018-05-02T16:20:34.800Z,11.40
2018-05-02T16:23:03.779Z,15.40
2018-05-02T16:25:33.436Z,7.53
2018-05-02T16:28:02.383Z,13.17
2018-05-02T16:30:32.877Z,11.93
2018-05-02T16:33:01.763Z,9.43
2018-05-02T16:35:30.692Z,13.23
2018-05-02T16:37:59.602Z,16.07
2018-05-02T16:40:28.469Z,14.47
2018-05-02T16:42:57.507Z,12.40
2018-05-02T16:45:26.423Z,16.93
2018-05-02T16:47:55.432Z,13.00
2018-05-02T16:50:24.409Z,11.03
2018-05-02T16:52:53.394Z,13.30
2018-05-02T16:55:22.299Z,14.63
2018-05-02T16:57:51.345Z,16.00
2018-05-02T17:00:20.250Z,14.20
2018-05-02T17:02:49.305Z,11.53
2018-05-02T17:05:18.261Z,14.43
2018-05-02T17:07:47.160Z,16.43
2018-05-02T17:10:16.074Z,12.87
2018-05-02T17:12:45.106Z,21.73
2018-05-02T17:15:14.023Z,11.10
2018-05-02T17:17:42.965Z,14.20
2018-05-02T17:20:11.908Z,10.67
2018-05-02T17:22:40.813Z,20.47
2018-05-02T17:25:09.707Z,10.00
2018-05-02T17:27:38.605Z,8.00
2018-05-02T17:30:08.328Z,16.40
2018-05-02T17:32:38.034Z,12.53
2018-05-02T17:35:06.944Z,12.27
2018-05-02T17:37:35.846Z,12.80
2018-05-02T17:40:04.782Z,14.93
2018-05-02T17:42:34.468Z,11.80
2018-05-02T17:45:03.358Z,11.73
2018-05-02T17:47:32.268Z,19.20
2018-05-02T17:50:01.251Z,19.80
2018-05-02T17:52:30.215Z,14.83
2018-05-02T17:54:59.186Z,12.40
2018-05-02T17:57:28.107Z,20.03
2018-05-02T17:59:57.029Z,14.10
2018-05-02T18:02:26.115Z,14.17
2018-05-02T18:04:55.047Z,14.70
2018-05-02T18:07:23.963Z,19.10
2018-05-02T18:09:52.853Z,16.03
2018-05-02T18:12:21.721Z,17.90
2018-05-02T18:14:50.651Z,16.57
2018-05-02T18:17:19.632Z,19.67
2018-05-02T18:19:48.581Z,15.70
2018-05-02T18:22:18.255Z,13.20
2018-05-02T18:24:47.251Z,15.80
2018-05-02T18:27:16.184Z,14.70
2018-05-02T18:29:45.040Z,13.10
2018-05-02T18:32:13.946Z,14.50
2018-05-02T18:34:42.848Z,11.60
2018-05-02T18:37:11.802Z,24.90
2018-05-02T18:39:40.688Z,12.93
2018-05-02T18:42:09.644Z,31.03
2018-05-02T18:44:38.586Z,13.10
2018-05-02T18:47:07.677Z,14.37
2018-05-02T18:49:36.513Z,11.80
2018-05-02T18:52:05.464Z,11.23
2018-05-02T18:54:35.204Z,14.27
2018-05-02T18:57:04.164Z,17.57
2018-05-02T18:59:33.115Z,15.00
2018-05-02T19:02:02.079Z,15.00
2018-05-02T19:04:30.989Z,20.73
2018-05-02T19:06:59.907Z,14.07
2018-05-02T19:09:28.836Z,11.73
2018-05-02T19:11:58.658Z,13.33
2018-05-02T19:14:27.533Z,13.73
2018-05-02T19:16:56.606Z,21.73
2018-05-02T19:19:30.927Z,13.30
2018-05-02T19:22:03.161Z,16.20
2018-05-02T19:24:37.967Z,12.83
2018-05-02T19:27:06.872Z,14.63
2018-05-02T19:29:35.907Z,17.77
2018-05-02T19:32:10.384Z,14.47
2018-05-02T19:34:39.308Z,15.73
2018-05-02T19:37:08.229Z,10.37
2018-05-02T19:39:43.517Z,17.00
2018-05-02T19:42:18.023Z,15.67
2018-05-02T19:44:46.908Z,10.67
2018-05-02T19:47:16.866Z,15.27
2018-05-02T19:49:46.069Z,13.50
2018-05-02T19:52:21.085Z,15.67
2018-05-02T19:54:50.160Z,14.93
2018-05-02T19:57:19.218Z,15.00
2018-05-02T19:59:48.165Z,15.00
2018-05-02T20:02:22.591Z,12.83
2018-05-02T20:04:51.590Z,13.93
2018-05-02T20:07:25.996Z,15.27
2018-05-02T20:10:00.608Z,17.50
2018-05-02T20:12:36.034Z,27.00
2018-05-02T20:15:04.921Z,27.23
2018-05-02T20:17:34.669Z,15.67
2018-05-02T20:20:06.236Z,17.07
2018-05-02T20:22:37.364Z,17.30
2018-05-02T20:25:06.310Z,15.10
2018-05-02T20:27:43.273Z,19.27
2018-05-02T20:30:13.497Z,14.87
2018-05-02T20:32:43.435Z,15.77
2018-05-02T20:35:14.115Z,13.57
2018-05-02T20:37:43.206Z,13.97
2018-05-02T20:40:12.266Z,13.53
2018-05-02T20:42:41.484Z,11.90
2018-05-02T20:45:11.669Z,12.80
2018-05-02T20:47:41.314Z,14.97
2018-05-02T20:50:10.272Z,17.13
2018-05-02T20:52:40.048Z,18.77
2018-05-02T20:55:09.033Z,12.60
2018-05-02T20:57:38.959Z,17.33
2018-05-02T21:00:08.539Z,12.50
2018-05-02T21:02:38.026Z,17.47
2018-05-02T21:05:09.350Z,16.93
2018-05-02T21:07:38.449Z,18.73
2018-05-02T21:10:18.783Z,19.17
2018-05-02T21:12:49.752Z,15.73
2018-05-02T21:15:18.752Z,20.70
2018-05-02T21:17:47.685Z,17.10
2018-05-02T21:20:16.592Z,14.90
2018-05-02T21:22:46.705Z,16.30
2018-05-02T21:25:16.068Z,12.47
2018-05-02T21:27:46.984Z,18.30
2018-05-02T21:30:16.064Z,15.80
2018-05-02T21:32:45.364Z,15.50
2018-05-02T21:35:14.363Z,12.03
2018-05-02T21:37:43.249Z,11.90
2018-05-02T21:40:12.933Z,15.33
2018-05-02T21:42:44.145Z,11.70
2018-05-02T21:45:14.386Z,23.53
2018-05-02T21:47:44.862Z,17.40
2018-05-02T21:50:13.764Z,14.37
2018-05-02T21:52:43.821Z,17.13
2018-05-02T21:55:13.642Z,13.50
2018-05-02T21:57:42.887Z,13.83
2018-05-02T22:00:12.026Z,14.03
2018-05-02T22:02:41.779Z,17.57
2018-05-02T22:05:10.760Z,11.90
2018-05-02T22:07:51.323Z,12.73
2018-05-02T22:10:21.085Z,16.70
2018-05-02T22:12:50.256Z,11.20
2018-05-02T22:15:19.152Z,16.13
2018-05-02T22:17:49.060Z,14.13
2018-05-02T22:20:17.977Z,14.90
2018-05-02T22:22:46.918Z,15.10
2018-05-02T22:25:23.496Z,15.30
2018-05-02T22:27:56.837Z,19.30
2018-05-02T22:30:42.939Z,14.57
2018-05-02T22:33:23.630Z,15.37
2018-05-02T22:35:53.318Z,11.80
2018-05-02T22:38:22.445Z,11.00
2018-05-02T22:40:52.177Z,18.33
2018-05-02T22:43:21.135Z,10.03
2018-05-02T22:45:53.681Z,10.53
2018-05-02T22:48:22.610Z,16.33
2018-05-02T22:53:32.651Z,14.60
2018-05-02T22:56:06.002Z,17.90
2018-05-02T22:58:37.101Z,15.03
2018-05-02T23:01:06.038Z,11.07
2018-05-02T23:03:38.682Z,17.33
2018-05-02T23:06:11.071Z,13.70
2018-05-02T23:13:28.433Z,15.17
2018-05-02T23:16:05.623Z,14.47
2018-05-02T23:18:38.573Z,14.03
2018-05-02T23:21:08.927Z,14.10
2018-05-02T23:23:37.813Z,17.27
2018-05-02T23:26:09.488Z,15.97
2018-05-02T23:28:39.364Z,15.27
2018-05-02T23:31:09.129Z,17.00
2018-05-02T23:33:43.607Z,13.33
2018-05-02T23:36:12.593Z,13.67
2018-05-02T23:38:42.499Z,17.70
2018-05-02T23:41:12.306Z,11.53
2018-05-02T23:43:41.629Z,11.70
2018-05-02T23:46:10.549Z,14.03
2018-05-02T23:48:39.893Z,11.67
2018-05-02T23:51:09.850Z,10.70
2018-05-02T23:53:42.138Z,14.07
2018-05-02T23:56:10.997Z,18.60
2018-05-02T23:58:39.859Z,18.33
